Texas General Land Office
 Texas General Land Office
 George P. Bush, Commissioner

 Oil Spill Prevention
 & Response

Texas Automated Buoy System
Real Time Ocean Observations
Supporting Oil Spill Prevention and
Response since 1995
Geochemical and Environmental Research Group

TABS Buoy R -- Texas Automated Buoy System

TABS Buoy R Conditions at 04/27/2017 17:00 UTC (04/27/2017 12:00 CDT)
29° 38.1000'N   93° 38.5020'W
AA3900 DCS - sensor depth 2m
Water Depth: 32 feet (9 meters)
Speed: 28.00 cm/s (0.54 kts) Direction: 270 °T (W) Water Temp: 24°C (74 °F)
System Voltage: 0.0 V Signal Strength: 0.0 dB Ping Count: 0
  


IMPORTANT: Notice to Mariners


Today's Velocity Data (download)

   Date   |  Time  |   East |   North|   Speed|  Dir | WaterT |
          |  (UTC) |  (cm/s)|  (cm/s)|  (cm/s)| (°T) |  (°C)  |
==========+========+========+========+========+======+========+
04/26/2017 02:00:00     2.08     9.78    10.00   12.0   24.3
04/26/2017 09:30:00   -18.07    -5.87    19.00  252.0   23.6
04/26/2017 21:30:00    -1.87     8.80     9.00  348.0   24.1
04/26/2017 22:00:00     2.08     9.78    10.00   12.0   24.3
04/26/2017 22:30:00     4.90     7.55     9.00   33.0   24.3
04/26/2017 23:00:00     5.20     4.68     7.00   48.0   24.3
04/26/2017 23:30:00     4.00     6.93     8.00   30.0   24.3
04/27/2017 00:00:00     3.08     3.94     5.00   38.0   24.1
04/27/2017 00:30:00     5.20     3.00     6.00   60.0   24.3
04/27/2017 01:00:00    -3.39     2.12     4.00  302.0   24.1
04/27/2017 01:30:00     7.36     8.17    11.00   42.0   24.1
04/27/2017 02:00:00     9.00     0.00     9.00   90.0   24.1
04/27/2017 02:30:00     3.86    -1.04     4.00  105.1   24.1
04/27/2017 03:00:00     0.00    -3.00     3.00  180.0   24.1
04/27/2017 03:30:00    -3.35    -2.18     4.00  236.9   24.1
04/27/2017 04:00:00    -3.63    -1.69     4.00  245.0   24.1
04/27/2017 04:30:00    -4.67    -1.79     5.00  249.0   24.1
04/27/2017 05:00:00    -2.83    -2.83     4.00  225.0   24.1
04/27/2017 05:30:00    -9.98    -0.70    10.00  266.0   23.9
04/27/2017 06:00:00    -7.73     2.07     8.00  285.0   23.9
04/27/2017 06:30:00   -11.00     0.00    11.00  270.0   23.9
04/27/2017 07:00:00    -8.51    -2.93     9.00  251.0   23.9
04/27/2017 07:30:00    -8.95    -0.94     9.00  264.0   23.9
04/27/2017 08:00:00   -10.63    -2.85    11.01  255.0   23.9
04/27/2017 08:30:00   -11.89   -10.71    16.00  228.0   23.9
04/27/2017 09:00:00   -17.12    -5.56    18.00  252.0   23.6
04/27/2017 09:30:00   -18.07    -5.87    19.00  252.0   23.6
04/27/2017 10:00:00   -22.50    -4.78    23.00  258.0   23.6
04/27/2017 10:30:00    -6.96    -0.73     7.00  264.0   23.6
04/27/2017 11:00:00   -19.85    -2.44    20.00  263.0   23.6
04/27/2017 11:30:00   -13.99    11.33    18.00  309.0   23.6
04/27/2017 12:00:00   -18.35    -4.92    19.00  255.0   23.6
04/27/2017 12:30:00   -22.50    -4.78    23.00  258.0   23.6
04/27/2017 13:00:00   -19.18    -8.54    21.00  246.0   23.6
04/27/2017 13:30:00   -25.86    -2.72    26.00  264.0   23.6
04/27/2017 14:00:00   -24.00    -0.42    24.00  269.0   23.6
04/27/2017 14:30:00   -22.00     0.00    22.00  270.0   23.6
04/27/2017 15:00:00   -23.00    -0.40    23.00  269.0   23.6
04/27/2017 15:30:00   -22.00    -0.38    22.00  269.0   23.6
04/27/2017 16:00:00   -18.93     1.66    19.00  275.0   23.6
04/27/2017 16:30:00   -16.98     0.89    17.00  273.0   23.6
04/27/2017 17:00:00   -28.00     0.00    28.00  270.0   23.6



       
 

Today's Temperature - Salinity Data     (Download)


   Date   |  Time  |   Temp |   Cond |Salinity| Density|SoundVel|
          |  (UTC) |   (°C) | (ms/cm)|        | kg/m^3 |  (m/s) |
==========+========+========+========+========+========+========+
04/19/2017 04:30:00    25.36     2.37    14.21     0.00     0.00
04/19/2017 05:00:00    25.39     2.37    14.19     0.00     0.00
04/19/2017 05:30:00    25.39     2.36    14.14     0.00     0.00
04/19/2017 06:00:00    25.40     2.35    14.07     0.00     0.00
04/19/2017 06:30:00    25.39     2.34    14.05     0.00     0.00
04/19/2017 07:00:00    25.38     2.35    14.07     0.00     0.00
04/19/2017 07:30:00    25.35     2.35    14.11     0.00     0.00
04/19/2017 08:00:00    25.25     2.38    14.32     0.00     0.00
04/19/2017 08:30:00    25.15     2.44    14.76     0.00     0.00
04/19/2017 09:00:00    25.17     2.47    14.94     0.00     0.00
04/19/2017 09:30:00    25.19     2.47    14.97     0.00     0.00
04/19/2017 10:00:00    25.17     2.48    15.02     0.00     0.00
04/19/2017 10:30:00    25.14     2.48    15.03     0.00     0.00
04/19/2017 11:00:00    25.07     2.46    14.89     0.00     0.00
04/19/2017 11:30:00    25.01     2.46    14.93     0.00     0.00
04/19/2017 12:00:00    24.89     2.46    14.97     0.00     0.00